Terminal Aerodrome Forecast
Issued by NWS

Home | Current Version | Previous Version | Text Only | Print | Product List | Glossary On
Versions: 1 2 3 4 5 6 7 8 9 10 11 12 13 14 15 16 17
000
FTUS46 KSEW 040530
TAFBFI
TAF
KBFI 040530Z 0406/0506 17011G18KT P6SM SCT012 BKN060 OVC080
      TEMPO 0406/0410 4SM -RA BR BKN012 OVC023
     FM041000 VRB04KT P6SM -RA BKN015 OVC025
     FM041400 30008KT P6SM -SHRA BKN015 OVC025
     FM041700 VRB05KT P6SM VCSH SCT020 BKN030
     FM042200 29009KT P6SM VCSH SCT025 BKN060=

USA.gov is the U.S. government's official web portal to all federal, state and local government web resources and services.